sensor_id;sensor_type;location;lat;lon;timestamp;pressure;altitude;pressure_sealevel;temperature;humidity
70488;BME280;57976;48.174;16.370;2023-07-24T00:01:33;98711.24;;;24.83;60.56
70488;BME280;57976;48.174;16.370;2023-07-24T00:03:36;98707.33;;;24.85;60.57
70488;BME280;57976;48.174;16.370;2023-07-24T00:05:40;98712.16;;;24.86;60.24
70488;BME280;57976;48.174;16.370;2023-07-24T00:07:45;98703.20;;;24.86;60.13
70488;BME280;57976;48.174;16.370;2023-07-24T00:09:48;98704.41;;;24.86;60.09
70488;BME280;57976;48.174;16.370;2023-07-24T00:11:51;98708.50;;;24.86;60.00
70488;BME280;57976;48.174;16.370;2023-07-24T00:13:57;98705.77;;;24.85;59.80
70488;BME280;57976;48.174;16.370;2023-07-24T00:16:06;98708.42;;;24.83;60.14
70488;BME280;57976;48.174;16.370;2023-07-24T00:18:09;98710.38;;;24.83;59.88
70488;BME280;57976;48.174;16.370;2023-07-24T00:20:13;98708.71;;;24.84;59.72
70488;BME280;57976;48.174;16.370;2023-07-24T00:22:15;98706.17;;;24.84;59.48
70488;BME280;57976;48.174;16.370;2023-07-24T00:24:18;98704.45;;;24.85;59.48
70488;BME280;57976;48.174;16.370;2023-07-24T00:26:21;98705.84;;;24.86;59.36
70488;BME280;57976;48.174;16.370;2023-07-24T00:28:24;98701.56;;;24.87;59.13
70488;BME280;57976;48.174;16.370;2023-07-24T00:30:29;98702.61;;;24.87;59.00
70488;BME280;57976;48.174;16.370;2023-07-24T00:32:32;98699.79;;;24.86;59.14
70488;BME280;57976;48.174;16.370;2023-07-24T00:34:35;98696.18;;;24.86;58.81
70488;BME280;57976;48.174;16.370;2023-07-24T00:36:38;98693.80;;;24.85;58.51
70488;BME280;57976;48.174;16.370;2023-07-24T00:38:42;98696.15;;;24.85;58.74
70488;BME280;57976;48.174;16.370;2023-07-24T00:40:44;98696.61;;;24.87;58.53
70488;BME280;57976;48.174;16.370;2023-07-24T00:42:48;98693.98;;;24.87;58.31
70488;BME280;57976;48.174;16.370;2023-07-24T00:44:50;98693.38;;;24.87;58.09
70488;BME280;57976;48.174;16.370;2023-07-24T00:46:56;98690.65;;;24.87;58.06
70488;BME280;57976;48.174;16.370;2023-07-24T00:49:01;98693.09;;;24.89;57.92
70488;BME280;57976;48.174;16.370;2023-07-24T00:51:06;98688.48;;;24.89;57.99
70488;BME280;57976;48.174;16.370;2023-07-24T00:53:10;98688.11;;;24.89;57.79
70488;BME280;57976;48.174;16.370;2023-07-24T00:55:15;98689.73;;;24.89;57.65
70488;BME280;57976;48.174;16.370;2023-07-24T00:57:18;98687.46;;;24.89;57.48
70488;BME280;57976;48.174;16.370;2023-07-24T00:59:21;98684.98;;;24.87;57.29
70488;BME280;57976;48.174;16.370;2023-07-24T01:04:26;98686.23;;;24.88;57.03
70488;BME280;57976;48.174;16.370;2023-07-24T01:06:31;98687.02;;;24.86;57.30
70488;BME280;57976;48.174;16.370;2023-07-24T01:08:37;98688.73;;;24.88;57.26
70488;BME280;57976;48.174;16.370;2023-07-24T01:10:42;98688.64;;;24.86;56.93
70488;BME280;57976;48.174;16.370;2023-07-24T01:12:54;98688.23;;;24.81;56.74
70488;BME280;57976;48.174;16.370;2023-07-24T01:15:08;98688.59;;;24.75;56.63
70488;BME280;57976;48.174;16.370;2023-07-24T01:17:17;98687.25;;;24.71;56.84
70488;BME280;57976;48.174;16.370;2023-07-24T01:19:35;98683.45;;;24.68;56.86
70488;BME280;57976;48.174;16.370;2023-07-24T01:21:56;98677.98;;;24.67;57.15
70488;BME280;57976;48.174;16.370;2023-07-24T01:24:19;98677.27;;;24.65;57.10
70488;BME280;57976;48.174;16.370;2023-07-24T01:26:34;98678.67;;;24.65;57.17
70488;BME280;57976;48.174;16.370;2023-07-24T01:28:42;98673.79;;;24.62;57.21
70488;BME280;57976;48.174;16.370;2023-07-24T01:39:43;98669.33;;;24.51;57.14
70488;BME280;57976;48.174;16.370;2023-07-24T01:41:49;98669.16;;;24.48;57.07
70488;BME280;57976;48.174;16.370;2023-07-24T01:43:55;98664.64;;;24.48;57.26
70488;BME280;57976;48.174;16.370;2023-07-24T01:46:03;98666.76;;;24.51;57.51
70488;BME280;57976;48.174;16.370;2023-07-24T01:48:11;98663.98;;;24.51;57.40
70488;BME280;57976;48.174;16.370;2023-07-24T01:50:16;98661.73;;;24.51;57.26
70488;BME280;57976;48.174;16.370;2023-07-24T01:52:21;98661.02;;;24.53;57.45
70488;BME280;57976;48.174;16.370;2023-07-24T01:54:27;98669.23;;;24.55;57.20
70488;BME280;57976;48.174;16.370;2023-07-24T01:56:33;98664.70;;;24.55;57.28
70488;BME280;57976;48.174;16.370;2023-07-24T01:58:38;98668.54;;;24.56;57.80
70488;BME280;57976;48.174;16.370;2023-07-24T02:00:45;98665.98;;;24.56;57.64
70488;BME280;57976;48.174;16.370;2023-07-24T02:02:50;98664.30;;;24.55;57.62
70488;BME280;57976;48.174;16.370;2023-07-24T02:04:57;98666.67;;;24.52;57.68
70488;BME280;57976;48.174;16.370;2023-07-24T02:07:03;98664.77;;;24.48;57.96
70488;BME280;57976;48.174;16.370;2023-07-24T02:09:10;98659.80;;;24.45;58.79
70488;BME280;57976;48.174;16.370;2023-07-24T02:11:15;98658.38;;;24.45;59.29
70488;BME280;57976;48.174;16.370;2023-07-24T02:13:21;98652.33;;;24.44;59.62
70488;BME280;57976;48.174;16.370;2023-07-24T02:15:26;98649.37;;;24.44;60.27
70488;BME280;57976;48.174;16.370;2023-07-24T02:17:35;98647.96;;;24.44;60.52
70488;BME280;57976;48.174;16.370;2023-07-24T02:19:40;98651.48;;;24.42;60.91
70488;BME280;57976;48.174;16.370;2023-07-24T02:21:45;98650.39;;;24.40;61.31
70488;BME280;57976;48.174;16.370;2023-07-24T02:23:56;98652.11;;;24.37;61.54
70488;BME280;57976;48.174;16.370;2023-07-24T02:26:04;98653.17;;;24.30;61.61
70488;BME280;57976;48.174;16.370;2023-07-24T02:28:11;98651.20;;;24.19;62.03
70488;BME280;57976;48.174;16.370;2023-07-24T02:30:16;98657.77;;;24.09;62.23
70488;BME280;57976;48.174;16.370;2023-07-24T02:32:22;98657.86;;;24.05;62.81
70488;BME280;57976;48.174;16.370;2023-07-24T02:34:27;98656.48;;;24.02;62.79
70488;BME280;57976;48.174;16.370;2023-07-24T02:36:32;98648.98;;;24.01;63.09
70488;BME280;57976;48.174;16.370;2023-07-24T02:38:40;98643.28;;;23.98;62.90
70488;BME280;57976;48.174;16.370;2023-07-24T02:40:45;98640.39;;;23.96;62.99
70488;BME280;57976;48.174;16.370;2023-07-24T02:42:52;98639.11;;;23.92;62.78
70488;BME280;57976;48.174;16.370;2023-07-24T02:44:57;98635.39;;;23.86;62.92
70488;BME280;57976;48.174;16.370;2023-07-24T02:47:02;98635.19;;;23.82;62.94
70488;BME280;57976;48.174;16.370;2023-07-24T02:49:10;98636.30;;;23.81;63.37
70488;BME280;57976;48.174;16.370;2023-07-24T02:51:20;98638.73;;;23.80;63.19
70488;BME280;57976;48.174;16.370;2023-07-24T02:53:28;98635.48;;;23.78;63.08
70488;BME280;57976;48.174;16.370;2023-07-24T02:55:33;98633.52;;;23.76;63.18
70488;BME280;57976;48.174;16.370;2023-07-24T02:57:38;98632.19;;;23.74;63.40
70488;BME280;57976;48.174;16.370;2023-07-24T02:59:44;98633.86;;;23.72;63.44
70488;BME280;57976;48.174;16.370;2023-07-24T03:01:51;98632.98;;;23.70;63.37
70488;BME280;57976;48.174;16.370;2023-07-24T03:03:57;98628.09;;;23.71;63.64
70488;BME280;57976;48.174;16.370;2023-07-24T03:06:02;98629.31;;;23.72;63.48
70488;BME280;57976;48.174;16.370;2023-07-24T03:08:07;98627.64;;;23.71;63.43
70488;BME280;57976;48.174;16.370;2023-07-24T03:10:13;98628.23;;;23.70;63.75
70488;BME280;57976;48.174;16.370;2023-07-24T03:12:18;98624.87;;;23.70;63.70
70488;BME280;57976;48.174;16.370;2023-07-24T03:14:23;98624.83;;;23.70;63.77
70488;BME280;57976;48.174;16.370;2023-07-24T03:16:28;98626.39;;;23.65;64.00
70488;BME280;57976;48.174;16.370;2023-07-24T03:18:34;98619.73;;;23.61;64.28
70488;BME280;57976;48.174;16.370;2023-07-24T03:20:39;98618.67;;;23.57;64.49
70488;BME280;57976;48.174;16.370;2023-07-24T03:22:45;98619.21;;;23.52;64.67
70488;BME280;57976;48.174;16.370;2023-07-24T03:24:50;98619.59;;;23.46;64.84
70488;BME280;57976;48.174;16.370;2023-07-24T03:26:58;98618.01;;;23.41;65.26
70488;BME280;57976;48.174;16.370;2023-07-24T03:29:06;98612.40;;;23.38;65.45
70488;BME280;57976;48.174;16.370;2023-07-24T03:31:14;98611.50;;;23.37;65.54
70488;BME280;57976;48.174;16.370;2023-07-24T03:33:21;98610.11;;;23.36;65.69
70488;BME280;57976;48.174;16.370;2023-07-24T03:35:27;98610.79;;;23.37;65.75
70488;BME280;57976;48.174;16.370;2023-07-24T03:37:32;98606.16;;;23.37;65.95
70488;BME280;57976;48.174;16.370;2023-07-24T03:39:40;98608.84;;;23.42;66.03
70488;BME280;57976;48.174;16.370;2023-07-24T03:41:46;98608.70;;;23.47;65.88
70488;BME280;57976;48.174;16.370;2023-07-24T03:43:52;98604.63;;;23.52;65.77
70488;BME280;57976;48.174;16.370;2023-07-24T03:45:59;98606.77;;;23.54;65.71
70488;BME280;57976;48.174;16.370;2023-07-24T03:48:07;98604.89;;;23.55;65.77
70488;BME280;57976;48.174;16.370;2023-07-24T03:50:12;98606.00;;;23.57;65.57
70488;BME280;57976;48.174;16.370;2023-07-24T03:52:17;98602.05;;;23.58;65.37
70488;BME280;57976;48.174;16.370;2023-07-24T03:54:23;98603.21;;;23.63;65.18
70488;BME280;57976;48.174;16.370;2023-07-24T03:56:29;98604.75;;;23.65;65.05
70488;BME280;57976;48.174;16.370;2023-07-24T03:58:36;98608.33;;;23.68;64.89
70488;BME280;57976;48.174;16.370;2023-07-24T04:00:42;98610.48;;;23.71;64.93
70488;BME280;57976;48.174;16.370;2023-07-24T04:02:47;98613.79;;;23.72;64.83
70488;BME280;57976;48.174;16.370;2023-07-24T04:04:53;98618.95;;;23.73;64.93
70488;BME280;57976;48.174;16.370;2023-07-24T04:06:58;98622.58;;;23.71;64.83
70488;BME280;57976;48.174;16.370;2023-07-24T04:09:06;98624.60;;;23.71;64.88
70488;BME280;57976;48.174;16.370;2023-07-24T04:11:11;98625.12;;;23.72;64.99
70488;BME280;57976;48.174;16.370;2023-07-24T04:13:19;98623.16;;;23.72;64.85
70488;BME280;57976;48.174;16.370;2023-07-24T04:15:24;98616.97;;;23.71;65.00
70488;BME280;57976;48.174;16.370;2023-07-24T04:17:29;98616.42;;;23.68;65.00
70488;BME280;57976;48.174;16.370;2023-07-24T04:19:35;98610.75;;;23.67;65.15
70488;BME280;57976;48.174;16.370;2023-07-24T04:21:40;98604.89;;;23.66;65.08
70488;BME280;57976;48.174;16.370;2023-07-24T04:23:45;98603.80;;;23.66;65.34
70488;BME280;57976;48.174;16.370;2023-07-24T04:25:52;98604.02;;;23.66;65.43
70488;BME280;57976;48.174;16.370;2023-07-24T04:27:57;98602.56;;;23.68;65.37
70488;BME280;57976;48.174;16.370;2023-07-24T04:30:02;98600.13;;;23.70;65.54
70488;BME280;57976;48.174;16.370;2023-07-24T04:32:08;98601.17;;;23.72;65.43
70488;BME280;57976;48.174;16.370;2023-07-24T04:34:14;98604.46;;;23.73;65.30
70488;BME280;57976;48.174;16.370;2023-07-24T04:36:19;98605.41;;;23.78;65.22
70488;BME280;57976;48.174;16.370;2023-07-24T04:38:24;98612.22;;;23.80;65.05
70488;BME280;57976;48.174;16.370;2023-07-24T04:40:32;98609.84;;;23.82;65.00
70488;BME280;57976;48.174;16.370;2023-07-24T04:42:37;98607.04;;;23.85;64.99
70488;BME280;57976;48.174;16.370;2023-07-24T04:44:43;98608.44;;;23.86;64.75
70488;BME280;57976;48.174;16.370;2023-07-24T04:46:51;98606.73;;;23.87;64.64
70488;BME280;57976;48.174;16.370;2023-07-24T04:48:56;98606.20;;;23.89;64.93
70488;BME280;57976;48.174;16.370;2023-07-24T04:51:00;98605.54;;;23.91;64.77
70488;BME280;57976;48.174;16.370;2023-07-24T04:53:06;98601.43;;;23.93;64.88
70488;BME280;57976;48.174;16.370;2023-07-24T04:55:14;98602.55;;;23.94;65.22
70488;BME280;57976;48.174;16.370;2023-07-24T04:57:19;98601.98;;;23.90;65.67
70488;BME280;57976;48.174;16.370;2023-07-24T04:59:27;98602.55;;;23.86;65.55
70488;BME280;57976;48.174;16.370;2023-07-24T05:01:35;98605.49;;;23.83;66.03
70488;BME280;57976;48.174;16.370;2023-07-24T05:03:40;98614.94;;;23.83;65.92
70488;BME280;57976;48.174;16.370;2023-07-24T05:05:49;98612.77;;;23.84;66.01
70488;BME280;57976;48.174;16.370;2023-07-24T05:07:58;98611.39;;;23.90;65.87
70488;BME280;57976;48.174;16.370;2023-07-24T05:10:04;98605.67;;;23.91;66.10
70488;BME280;57976;48.174;16.370;2023-07-24T05:12:09;98604.67;;;23.91;66.27
70488;BME280;57976;48.174;16.370;2023-07-24T05:14:14;98609.89;;;23.97;65.26
70488;BME280;57976;48.174;16.370;2023-07-24T05:16:19;98610.21;;;24.02;64.45
70488;BME280;57976;48.174;16.370;2023-07-24T05:18:25;98609.77;;;24.05;63.92
70488;BME280;57976;48.174;16.370;2023-07-24T05:20:30;98605.06;;;24.07;63.70
70488;BME280;57976;48.174;16.370;2023-07-24T05:22:35;98604.98;;;24.13;63.60
70488;BME280;57976;48.174;16.370;2023-07-24T05:24:40;98609.20;;;24.16;63.51
70488;BME280;57976;48.174;16.370;2023-07-24T05:26:45;98617.09;;;24.20;63.56
70488;BME280;57976;48.174;16.370;2023-07-24T05:28:51;98619.78;;;24.24;63.70
70488;BME280;57976;48.174;16.370;2023-07-24T05:30:59;98613.71;;;24.25;63.78
70488;BME280;57976;48.174;16.370;2023-07-24T05:33:04;98607.57;;;24.26;63.90
70488;BME280;57976;48.174;16.370;2023-07-24T05:35:10;98607.22;;;24.27;63.50
70488;BME280;57976;48.174;16.370;2023-07-24T05:37:15;98608.99;;;24.22;63.55
70488;BME280;57976;48.174;16.370;2023-07-24T05:39:20;98606.63;;;24.18;63.78
70488;BME280;57976;48.174;16.370;2023-07-24T05:41:28;98608.98;;;24.19;63.99
70488;BME280;57976;48.174;16.370;2023-07-24T05:43:33;98606.06;;;24.21;64.33
70488;BME280;57976;48.174;16.370;2023-07-24T05:45:38;98605.61;;;24.22;64.65
70488;BME280;57976;48.174;16.370;2023-07-24T05:47:43;98606.84;;;24.20;64.90
70488;BME280;57976;48.174;16.370;2023-07-24T05:49:48;98607.37;;;24.21;65.54
70488;BME280;57976;48.174;16.370;2023-07-24T05:51:54;98603.63;;;24.20;65.66
70488;BME280;57976;48.174;16.370;2023-07-24T05:54:02;98599.15;;;24.21;65.97
70488;BME280;57976;48.174;16.370;2023-07-24T05:56:08;98600.27;;;24.24;65.93
70488;BME280;57976;48.174;16.370;2023-07-24T05:58:14;98596.87;;;24.26;66.20
70488;BME280;57976;48.174;16.370;2023-07-24T06:00:23;98600.46;;;24.28;66.41
70488;BME280;57976;48.174;16.370;2023-07-24T06:02:30;98600.45;;;24.35;67.13
70488;BME280;57976;48.174;16.370;2023-07-24T06:04:35;98597.92;;;24.45;66.62
70488;BME280;57976;48.174;16.370;2023-07-24T06:06:41;98591.75;;;24.51;66.38
70488;BME280;57976;48.174;16.370;2023-07-24T06:08:47;98592.36;;;24.56;66.14
70488;BME280;57976;48.174;16.370;2023-07-24T06:10:52;98584.83;;;24.64;66.03
70488;BME280;57976;48.174;16.370;2023-07-24T06:13:00;98585.69;;;24.73;66.02
70488;BME280;57976;48.174;16.370;2023-07-24T06:15:08;98581.29;;;24.82;65.86
70488;BME280;57976;48.174;16.370;2023-07-24T06:17:13;98577.23;;;24.91;65.61
70488;BME280;57976;48.174;16.370;2023-07-24T06:19:18;98583.42;;;25.03;65.49
70488;BME280;57976;48.174;16.370;2023-07-24T06:21:23;98578.72;;;25.13;65.03
70488;BME280;57976;48.174;16.370;2023-07-24T06:23:31;98569.55;;;25.26;64.64
70488;BME280;57976;48.174;16.370;2023-07-24T06:25:39;98565.95;;;25.39;64.04
70488;BME280;57976;48.174;16.370;2023-07-24T06:27:46;98558.73;;;25.52;63.38
70488;BME280;57976;48.174;16.370;2023-07-24T06:29:51;98554.67;;;25.66;62.75
70488;BME280;57976;48.174;16.370;2023-07-24T06:31:59;98549.16;;;25.79;62.31
70488;BME280;57976;48.174;16.370;2023-07-24T06:34:07;98545.70;;;25.95;61.62
70488;BME280;57976;48.174;16.370;2023-07-24T06:36:13;98545.04;;;26.10;60.93
70488;BME280;57976;48.174;16.370;2023-07-24T06:38:21;98542.12;;;26.23;60.62
70488;BME280;57976;48.174;16.370;2023-07-24T06:40:29;98544.52;;;26.37;60.52
70488;BME280;57976;48.174;16.370;2023-07-24T06:42:35;98546.16;;;26.47;59.60
70488;BME280;57976;48.174;16.370;2023-07-24T06:44:42;98545.66;;;26.57;59.53
70488;BME280;57976;48.174;16.370;2023-07-24T06:46:50;98541.39;;;26.67;58.89
70488;BME280;57976;48.174;16.370;2023-07-24T06:48:55;98542.27;;;26.77;58.44
70488;BME280;57976;48.174;16.370;2023-07-24T06:51:01;98548.71;;;26.90;58.18
70488;BME280;57976;48.174;16.370;2023-07-24T06:53:07;98549.65;;;27.04;57.74
70488;BME280;57976;48.174;16.370;2023-07-24T06:55:13;98543.77;;;27.18;57.37
70488;BME280;57976;48.174;16.370;2023-07-24T06:57:18;98539.63;;;27.35;56.74
70488;BME280;57976;48.174;16.370;2023-07-24T06:59:26;98536.64;;;27.48;56.33
70488;BME280;57976;48.174;16.370;2023-07-24T07:01:31;98531.90;;;27.60;56.09
70488;BME280;57976;48.174;16.370;2023-07-24T07:03:37;98525.51;;;27.74;55.49
70488;BME280;57976;48.174;16.370;2023-07-24T07:05:42;98518.34;;;27.85;55.24
70488;BME280;57976;48.174;16.370;2023-07-24T07:07:50;98512.14;;;27.91;55.61
70488;BME280;57976;48.174;16.370;2023-07-24T07:09:55;98514.59;;;27.96;56.26
70488;BME280;57976;48.174;16.370;2023-07-24T07:12:00;98513.60;;;27.93;56.36
70488;BME280;57976;48.174;16.370;2023-07-24T07:14:05;98514.48;;;27.87;56.94
70488;BME280;57976;48.174;16.370;2023-07-24T07:16:10;98518.31;;;27.85;57.72
70488;BME280;57976;48.174;16.370;2023-07-24T07:18:15;98514.01;;;27.87;58.06
70488;BME280;57976;48.174;16.370;2023-07-24T07:20:25;98512.66;;;27.91;58.78
70488;BME280;57976;48.174;16.370;2023-07-24T07:22:36;98513.73;;;27.92;59.28
70488;BME280;57976;48.174;16.370;2023-07-24T07:24:41;98517.08;;;27.90;60.04
70488;BME280;57976;48.174;16.370;2023-07-24T07:26:50;98516.55;;;27.92;60.60
70488;BME280;57976;48.174;16.370;2023-07-24T07:28:58;98516.35;;;28.04;61.15
70488;BME280;57976;48.174;16.370;2023-07-24T07:31:03;98510.85;;;28.10;61.70
70488;BME280;57976;48.174;16.370;2023-07-24T07:33:09;98502.56;;;28.04;62.70
70488;BME280;57976;48.174;16.370;2023-07-24T07:35:15;98495.77;;;28.07;62.84
70488;BME280;57976;48.174;16.370;2023-07-24T07:37:20;98496.02;;;28.13;63.15
70488;BME280;57976;48.174;16.370;2023-07-24T07:39:26;98494.64;;;28.14;63.57
70488;BME280;57976;48.174;16.370;2023-07-24T07:41:33;98490.48;;;28.14;64.01
70488;BME280;57976;48.174;16.370;2023-07-24T07:43:39;98490.73;;;28.15;63.93
70488;BME280;57976;48.174;16.370;2023-07-24T07:45:44;98492.12;;;28.16;64.29
70488;BME280;57976;48.174;16.370;2023-07-24T07:47:49;98485.84;;;28.22;64.22
70488;BME280;57976;48.174;16.370;2023-07-24T07:49:57;98485.05;;;28.30;64.15
70488;BME280;57976;48.174;16.370;2023-07-24T07:52:02;98483.73;;;28.42;63.74
70488;BME280;57976;48.174;16.370;2023-07-24T07:54:10;98488.51;;;28.53;62.45
70488;BME280;57976;48.174;16.370;2023-07-24T07:56:15;98488.65;;;28.63;61.49
70488;BME280;57976;48.174;16.370;2023-07-24T07:58:20;98486.42;;;28.71;61.13
70488;BME280;57976;48.174;16.370;2023-07-24T08:00:26;98482.33;;;28.79;60.88
70488;BME280;57976;48.174;16.370;2023-07-24T08:02:32;98474.57;;;28.86;60.66
70488;BME280;57976;48.174;16.370;2023-07-24T08:04:37;98468.99;;;28.93;60.24
70488;BME280;57976;48.174;16.370;2023-07-24T08:06:42;98463.19;;;29.02;59.65
70488;BME280;57976;48.174;16.370;2023-07-24T08:08:47;98458.52;;;29.08;59.04
70488;BME280;57976;48.174;16.370;2023-07-24T08:10:52;98459.15;;;29.13;57.94
70488;BME280;57976;48.174;16.370;2023-07-24T08:12:57;98458.27;;;29.16;57.12
70488;BME280;57976;48.174;16.370;2023-07-24T08:15:03;98452.10;;;29.19;57.10
70488;BME280;57976;48.174;16.370;2023-07-24T08:17:08;98450.05;;;29.27;57.06
70488;BME280;57976;48.174;16.370;2023-07-24T08:19:14;98450.82;;;29.34;57.30
70488;BME280;57976;48.174;16.370;2023-07-24T08:21:19;98446.36;;;29.41;57.20
70488;BME280;57976;48.174;16.370;2023-07-24T08:23:24;98442.52;;;29.47;57.19
70488;BME280;57976;48.174;16.370;2023-07-24T08:25:30;98436.65;;;29.52;56.81
70488;BME280;57976;48.174;16.370;2023-07-24T08:27:35;98434.90;;;29.59;56.77
70488;BME280;57976;48.174;16.370;2023-07-24T08:29:58;98432.95;;;29.68;56.57
70488;BME280;57976;48.174;16.370;2023-07-24T08:32:04;98430.16;;;29.76;56.43
70488;BME280;57976;48.174;16.370;2023-07-24T08:34:12;98424.92;;;29.82;55.86
70488;BME280;57976;48.174;16.370;2023-07-24T08:36:17;98420.84;;;29.89;56.02
70488;BME280;57976;48.174;16.370;2023-07-24T08:38:23;98418.40;;;29.98;55.53
70488;BME280;57976;48.174;16.370;2023-07-24T08:40:29;98418.77;;;30.08;55.24
70488;BME280;57976;48.174;16.370;2023-07-24T08:42:37;98416.92;;;30.18;55.38
70488;BME280;57976;48.174;16.370;2023-07-24T08:44:46;98412.95;;;30.25;55.04
70488;BME280;57976;48.174;16.370;2023-07-24T08:46:52;98411.38;;;30.28;54.90
70488;BME280;57976;48.174;16.370;2023-07-24T08:48:57;98412.33;;;30.31;54.98
70488;BME280;57976;48.174;16.370;2023-07-24T08:51:06;98409.21;;;30.37;55.24
70488;BME280;57976;48.174;16.370;2023-07-24T08:53:12;98413.63;;;30.46;54.92
70488;BME280;57976;48.174;16.370;2023-07-24T08:55:19;98413.81;;;30.56;54.48
70488;BME280;57976;48.174;16.370;2023-07-24T08:57:25;98409.69;;;30.68;53.79
70488;BME280;57976;48.174;16.370;2023-07-24T08:59:30;98407.77;;;30.75;53.30
70488;BME280;57976;48.174;16.370;2023-07-24T09:01:41;98406.58;;;30.84;52.96
70488;BME280;57976;48.174;16.370;2023-07-24T09:03:46;98406.58;;;30.90;51.61
70488;BME280;57976;48.174;16.370;2023-07-24T09:05:54;98405.36;;;30.98;50.51
70488;BME280;57976;48.174;16.370;2023-07-24T09:07:59;98394.28;;;31.08;49.77
70488;BME280;57976;48.174;16.370;2023-07-24T09:10:09;98394.98;;;31.17;49.88
70488;BME280;57976;48.174;16.370;2023-07-24T09:12:18;98399.44;;;31.27;48.73
70488;BME280;57976;48.174;16.370;2023-07-24T09:14:25;98394.63;;;31.33;46.42
70488;BME280;57976;48.174;16.370;2023-07-24T09:16:33;98396.84;;;31.40;46.09
70488;BME280;57976;48.174;16.370;2023-07-24T09:18:42;98397.61;;;31.50;46.01
70488;BME280;57976;48.174;16.370;2023-07-24T09:20:48;98385.80;;;31.57;45.70
70488;BME280;57976;48.174;16.370;2023-07-24T09:22:54;98378.69;;;31.63;45.50
70488;BME280;57976;48.174;16.370;2023-07-24T09:25:31;98378.28;;;31.66;44.89
70488;BME280;57976;48.174;16.370;2023-07-24T09:27:37;98382.59;;;31.61;44.16
70488;BME280;57976;48.174;16.370;2023-07-24T09:29:44;98386.70;;;31.62;43.94
70488;BME280;57976;48.174;16.370;2023-07-24T09:31:52;98384.20;;;31.70;44.35
70488;BME280;57976;48.174;16.370;2023-07-24T09:33:57;98386.05;;;31.76;44.37
70488;BME280;57976;48.174;16.370;2023-07-24T09:36:03;98381.56;;;31.77;44.50
70488;BME280;57976;48.174;16.370;2023-07-24T09:38:10;98373.32;;;31.81;44.69
70488;BME280;57976;48.174;16.370;2023-07-24T09:40:19;98364.39;;;31.91;44.77
70488;BME280;57976;48.174;16.370;2023-07-24T09:42:31;98360.05;;;32.02;44.85
70488;BME280;57976;48.174;16.370;2023-07-24T09:44:37;98351.44;;;32.13;44.97
70488;BME280;57976;48.174;16.370;2023-07-24T09:46:42;98349.86;;;32.26;44.90
70488;BME280;57976;48.174;16.370;2023-07-24T09:49:05;98350.46;;;32.38;44.30
70488;BME280;57976;48.174;16.370;2023-07-24T09:51:13;98349.29;;;32.46;44.50
70488;BME280;57976;48.174;16.370;2023-07-24T09:53:24;98338.04;;;32.61;43.90
70488;BME280;57976;48.174;16.370;2023-07-24T09:55:37;98328.46;;;32.68;42.82
70488;BME280;57976;48.174;16.370;2023-07-24T09:57:45;98329.06;;;32.77;43.54
70488;BME280;57976;48.174;16.370;2023-07-24T09:59:52;98330.77;;;32.95;43.38
70488;BME280;57976;48.174;16.370;2023-07-24T10:02:03;98323.76;;;33.11;43.06
70488;BME280;57976;48.174;16.370;2023-07-24T10:04:09;98320.10;;;33.20;42.54
70488;BME280;57976;48.174;16.370;2023-07-24T10:06:14;98318.33;;;33.29;43.00
70488;BME280;57976;48.174;16.370;2023-07-24T10:08:20;98310.52;;;33.43;42.59
70488;BME280;57976;48.174;16.370;2023-07-24T10:10:26;98308.51;;;33.55;42.41
70488;BME280;57976;48.174;16.370;2023-07-24T10:12:32;98302.95;;;33.67;42.25
70488;BME280;57976;48.174;16.370;2023-07-24T10:14:38;98290.80;;;33.75;41.85
70488;BME280;57976;48.174;16.370;2023-07-24T10:16:44;98283.89;;;33.85;41.31
70488;BME280;57976;48.174;16.370;2023-07-24T10:18:49;98279.98;;;33.90;40.73
70488;BME280;57976;48.174;16.370;2023-07-24T10:21:04;98275.19;;;33.92;40.59
70488;BME280;57976;48.174;16.370;2023-07-24T10:23:11;98265.10;;;33.94;40.24
70488;BME280;57976;48.174;16.370;2023-07-24T10:25:31;98264.69;;;34.00;40.10
70488;BME280;57976;48.174;16.370;2023-07-24T10:27:41;98260.64;;;34.04;39.89
70488;BME280;57976;48.174;16.370;2023-07-24T10:29:47;98258.65;;;34.10;39.82
70488;BME280;57976;48.174;16.370;2023-07-24T10:32:15;98254.21;;;34.09;38.96
70488;BME280;57976;48.174;16.370;2023-07-24T10:34:24;98251.14;;;34.10;39.36
70488;BME280;57976;48.174;16.370;2023-07-24T10:36:35;98239.03;;;34.18;39.15
70488;BME280;57976;48.174;16.370;2023-07-24T10:38:41;98235.09;;;34.20;38.99
70488;BME280;57976;48.174;16.370;2023-07-24T10:40:47;98230.68;;;34.21;38.80
70488;BME280;57976;48.174;16.370;2023-07-24T10:43:03;98221.05;;;34.24;39.50
70488;BME280;57976;48.174;16.370;2023-07-24T10:45:11;98220.20;;;34.34;39.14
70488;BME280;57976;48.174;16.370;2023-07-24T10:47:17;98215.23;;;34.28;38.90
70488;BME280;57976;48.174;16.370;2023-07-24T10:49:24;98218.36;;;34.33;38.97
70488;BME280;57976;48.174;16.370;2023-07-24T10:51:30;98205.69;;;34.29;38.58
70488;BME280;57976;48.174;16.370;2023-07-24T10:53:36;98205.14;;;34.20;38.51
70488;BME280;57976;48.174;16.370;2023-07-24T10:55:42;98193.95;;;34.13;38.41
70488;BME280;57976;48.174;16.370;2023-07-24T10:57:47;98191.08;;;34.19;38.92
70488;BME280;57976;48.174;16.370;2023-07-24T10:59:52;98180.20;;;34.35;39.01
70488;BME280;57976;48.174;16.370;2023-07-24T11:02:00;98172.92;;;34.55;38.59
70488;BME280;57976;48.174;16.370;2023-07-24T11:04:05;98166.16;;;34.77;37.47
70488;BME280;57976;48.174;16.370;2023-07-24T11:06:15;98164.42;;;34.95;37.34
70488;BME280;57976;48.174;16.370;2023-07-24T11:08:25;98155.73;;;35.11;37.14
70488;BME280;57976;48.174;16.370;2023-07-24T11:10:30;98147.20;;;35.20;35.65
70488;BME280;57976;48.174;16.370;2023-07-24T11:12:40;98136.27;;;35.16;35.39
70488;BME280;57976;48.174;16.370;2023-07-24T11:14:52;98137.20;;;35.11;35.14